Now boarding.
Please wait.

menu

Arabian Airlines

Arabian was founded in 2001 by Mahmoud Fadli. The purpose of the company is to create affordable air travel links between the airline’s main hub in Amman, Jordan and the rest of the world. The airline intends to operate regional and intercontinental routes worldwide. The airline is part of the GlobalOne Virtual Airline Alliance, which it founded in 2006. Arabian operates only on the VATSIM Network due to the increased standards and realism it offers.

While a virtual airline, Arabian is also a growing and evolving business proposal that intends to seek funding in hopes of starting up in the real world.

Arabian can be followed on Facebook and Twitter @ArabianVirtual. The airline CEO, Mahmoud Fadli, also maintains a Twitter account: @ArabianVA_CEO.

  • Must be Over 18 Years of Age
  • Minimum 4 Flights Per Month
  • Captain, Direct Entry: 3,000 Total VATSIM Hours

Fly Arabian Airlines!


Vatsim Radar

CID Callsign Departure Destination Aircraft Pilot Rating

Fleet


Hubs

OJAI Queen Alia International Airport

Airport Information METAR Runway Information

Current Weather:

OJAI 130600Z 30004KT 4000 HZ NSC 07/M06 Q1021 NOSIG

Runway Facts:

Direction Length m Length ft Elevation m Elevation ft Surface
08R/26L 3,660 12,008 730 m 2,395 ft Concrete
08L/26R 3,660 12,008 730 m 2,395 ft Asphalt